sensor_id;sensor_type;location;lat;lon;timestamp;P1;durP1;ratioP1;P2;durP2;ratioP2
67554;SDS011;54385;53.516;49.456;2023-05-28T00:01:30;20.88;;;7.57;;
67554;SDS011;54385;53.516;49.456;2023-05-28T00:03:58;18.38;;;6.85;;
67554;SDS011;54385;53.516;49.456;2023-05-28T00:06:24;14.57;;;6.68;;
67554;SDS011;54385;53.516;49.456;2023-05-28T00:08:50;14.57;;;7.03;;
67554;SDS011;54385;53.516;49.456;2023-05-28T00:11:17;14.52;;;6.53;;
67554;SDS011;54385;53.516;49.456;2023-05-28T00:13:43;18.02;;;7.10;;
67554;SDS011;54385;53.516;49.456;2023-05-28T00:16:10;17.40;;;7.05;;
67554;SDS011;54385;53.516;49.456;2023-05-28T00:18:38;15.55;;;6.68;;
67554;SDS011;54385;53.516;49.456;2023-05-28T00:21:05;16.45;;;6.78;;
67554;SDS011;54385;53.516;49.456;2023-05-28T00:23:31;14.65;;;7.30;;
67554;SDS011;54385;53.516;49.456;2023-05-28T00:25:58;21.85;;;8.07;;
67554;SDS011;54385;53.516;49.456;2023-05-28T00:28:24;14.55;;;6.88;;
67554;SDS011;54385;53.516;49.456;2023-05-28T00:30:50;17.17;;;7.30;;
67554;SDS011;54385;53.516;49.456;2023-05-28T00:33:17;11.50;;;6.97;;
67554;SDS011;54385;53.516;49.456;2023-05-28T00:35:43;17.50;;;7.00;;
67554;SDS011;54385;53.516;49.456;2023-05-28T00:38:09;16.70;;;7.00;;
67554;SDS011;54385;53.516;49.456;2023-05-28T00:40:36;10.73;;;7.03;;
67554;SDS011;54385;53.516;49.456;2023-05-28T00:43:02;15.63;;;7.25;;
67554;SDS011;54385;53.516;49.456;2023-05-28T00:45:29;13.77;;;7.13;;
67554;SDS011;54385;53.516;49.456;2023-05-28T00:47:55;20.63;;;7.97;;
67554;SDS011;54385;53.516;49.456;2023-05-28T00:50:22;12.95;;;6.35;;
67554;SDS011;54385;53.516;49.456;2023-05-28T00:52:49;16.73;;;7.32;;
67554;SDS011;54385;53.516;49.456;2023-05-28T00:55:17;18.40;;;6.85;;
67554;SDS011;54385;53.516;49.456;2023-05-28T00:57:44;16.98;;;7.55;;
67554;SDS011;54385;53.516;49.456;2023-05-28T01:00:12;14.48;;;6.75;;
67554;SDS011;54385;53.516;49.456;2023-05-28T01:02:39;15.40;;;8.07;;
67554;SDS011;54385;53.516;49.456;2023-05-28T01:05:06;15.38;;;8.48;;
67554;SDS011;54385;53.516;49.456;2023-05-28T01:07:33;16.38;;;7.72;;
67554;SDS011;54385;53.516;49.456;2023-05-28T01:10:00;14.98;;;7.55;;
67554;SDS011;54385;53.516;49.456;2023-05-28T01:12:27;15.70;;;7.97;;
67554;SDS011;54385;53.516;49.456;2023-05-28T01:14:55;17.20;;;7.70;;
67554;SDS011;54385;53.516;49.456;2023-05-28T01:17:22;23.55;;;7.93;;
67554;SDS011;54385;53.516;49.456;2023-05-28T01:19:49;15.10;;;7.28;;
67554;SDS011;54385;53.516;49.456;2023-05-28T01:22:19;17.17;;;7.03;;
67554;SDS011;54385;53.516;49.456;2023-05-28T01:24:51;15.20;;;7.10;;
67554;SDS011;54385;53.516;49.456;2023-05-28T01:27:18;15.88;;;7.20;;
67554;SDS011;54385;53.516;49.456;2023-05-28T01:29:45;16.02;;;7.38;;
67554;SDS011;54385;53.516;49.456;2023-05-28T01:32:11;13.57;;;7.65;;
67554;SDS011;54385;53.516;49.456;2023-05-28T01:34:38;14.30;;;6.80;;
67554;SDS011;54385;53.516;49.456;2023-05-28T01:37:06;13.40;;;7.07;;
67554;SDS011;54385;53.516;49.456;2023-05-28T01:39:37;14.88;;;6.60;;
67554;SDS011;54385;53.516;49.456;2023-05-28T01:42:10;12.25;;;6.22;;
67554;SDS011;54385;53.516;49.456;2023-05-28T01:44:38;15.02;;;6.63;;
67554;SDS011;54385;53.516;49.456;2023-05-28T01:47:07;16.05;;;6.97;;
67554;SDS011;54385;53.516;49.456;2023-05-28T01:49:35;14.40;;;7.05;;
67554;SDS011;54385;53.516;49.456;2023-05-28T01:52:02;14.02;;;6.97;;
67554;SDS011;54385;53.516;49.456;2023-05-28T01:54:38;16.02;;;7.18;;
67554;SDS011;54385;53.516;49.456;2023-05-28T01:57:05;12.60;;;6.95;;
67554;SDS011;54385;53.516;49.456;2023-05-28T01:59:32;15.23;;;6.65;;
67554;SDS011;54385;53.516;49.456;2023-05-28T02:01:58;17.17;;;6.88;;
67554;SDS011;54385;53.516;49.456;2023-05-28T02:04:25;14.93;;;7.38;;
67554;SDS011;54385;53.516;49.456;2023-05-28T02:06:51;13.85;;;7.65;;
67554;SDS011;54385;53.516;49.456;2023-05-28T02:09:17;15.23;;;6.53;;
67554;SDS011;54385;53.516;49.456;2023-05-28T02:11:44;18.70;;;6.38;;
67554;SDS011;54385;53.516;49.456;2023-05-28T02:14:10;19.38;;;7.50;;
67554;SDS011;54385;53.516;49.456;2023-05-28T02:16:45;16.75;;;6.75;;
67554;SDS011;54385;53.516;49.456;2023-05-28T02:19:15;16.75;;;6.97;;
67554;SDS011;54385;53.516;49.456;2023-05-28T02:21:42;14.50;;;6.65;;
67554;SDS011;54385;53.516;49.456;2023-05-28T02:24:09;18.27;;;7.53;;
67554;SDS011;54385;53.516;49.456;2023-05-28T02:26:39;15.52;;;6.78;;
67554;SDS011;54385;53.516;49.456;2023-05-28T02:29:05;14.27;;;6.78;;
67554;SDS011;54385;53.516;49.456;2023-05-28T02:31:32;15.50;;;6.88;;
67554;SDS011;54385;53.516;49.456;2023-05-28T02:33:59;17.50;;;7.50;;
67554;SDS011;54385;53.516;49.456;2023-05-28T02:36:25;14.13;;;6.70;;
67554;SDS011;54385;53.516;49.456;2023-05-28T02:38:52;13.70;;;6.20;;
67554;SDS011;54385;53.516;49.456;2023-05-28T02:41:18;14.13;;;6.55;;
67554;SDS011;54385;53.516;49.456;2023-05-28T02:43:45;13.45;;;6.25;;
67554;SDS011;54385;53.516;49.456;2023-05-28T02:46:11;11.90;;;6.10;;
67554;SDS011;54385;53.516;49.456;2023-05-28T02:48:38;15.57;;;6.18;;
67554;SDS011;54385;53.516;49.456;2023-05-28T02:51:04;19.27;;;6.53;;
67554;SDS011;54385;53.516;49.456;2023-05-28T02:53:31;32.15;;;7.13;;
67554;SDS011;54385;53.516;49.456;2023-05-28T02:55:57;19.02;;;7.22;;
67554;SDS011;54385;53.516;49.456;2023-05-28T02:58:24;18.00;;;6.68;;
67554;SDS011;54385;53.516;49.456;2023-05-28T03:00:51;15.90;;;6.18;;
67554;SDS011;54385;53.516;49.456;2023-05-28T03:03:17;14.00;;;6.15;;
67554;SDS011;54385;53.516;49.456;2023-05-28T03:05:43;13.98;;;5.90;;
67554;SDS011;54385;53.516;49.456;2023-05-28T03:08:10;11.20;;;5.65;;
67554;SDS011;54385;53.516;49.456;2023-05-28T03:10:36;18.65;;;6.10;;
67554;SDS011;54385;53.516;49.456;2023-05-28T03:13:03;17.88;;;6.20;;
67554;SDS011;54385;53.516;49.456;2023-05-28T03:15:29;12.80;;;4.68;;
67554;SDS011;54385;53.516;49.456;2023-05-28T03:17:56;17.08;;;7.25;;
67554;SDS011;54385;53.516;49.456;2023-05-28T03:20:23;17.77;;;6.22;;
67554;SDS011;54385;53.516;49.456;2023-05-28T03:22:54;14.63;;;5.57;;
67554;SDS011;54385;53.516;49.456;2023-05-28T03:27:49;13.40;;;6.22;;
67554;SDS011;54385;53.516;49.456;2023-05-28T03:30:15;14.73;;;5.43;;
67554;SDS011;54385;53.516;49.456;2023-05-28T03:32:42;12.20;;;5.22;;
67554;SDS011;54385;53.516;49.456;2023-05-28T03:35:08;20.00;;;6.10;;
67554;SDS011;54385;53.516;49.456;2023-05-28T03:37:35;17.70;;;5.78;;
67554;SDS011;54385;53.516;49.456;2023-05-28T03:40:02;12.57;;;5.40;;
67554;SDS011;54385;53.516;49.456;2023-05-28T03:42:30;14.75;;;5.50;;
67554;SDS011;54385;53.516;49.456;2023-05-28T03:44:56;12.55;;;5.55;;
67554;SDS011;54385;53.516;49.456;2023-05-28T03:47:23;11.68;;;4.90;;
67554;SDS011;54385;53.516;49.456;2023-05-28T03:49:50;16.08;;;5.47;;
67554;SDS011;54385;53.516;49.456;2023-05-28T03:52:16;12.43;;;5.15;;
67554;SDS011;54385;53.516;49.456;2023-05-28T03:54:43;12.65;;;5.70;;
67554;SDS011;54385;53.516;49.456;2023-05-28T03:57:10;16.80;;;5.72;;
67554;SDS011;54385;53.516;49.456;2023-05-28T03:59:36;11.63;;;5.03;;
67554;SDS011;54385;53.516;49.456;2023-05-28T04:02:03;18.90;;;5.72;;
67554;SDS011;54385;53.516;49.456;2023-05-28T04:04:29;15.77;;;6.03;;
67554;SDS011;54385;53.516;49.456;2023-05-28T04:06:55;15.15;;;5.70;;
67554;SDS011;54385;53.516;49.456;2023-05-28T04:09:22;15.27;;;5.80;;
67554;SDS011;54385;53.516;49.456;2023-05-28T04:11:48;14.00;;;4.93;;
67554;SDS011;54385;53.516;49.456;2023-05-28T04:14:15;15.38;;;5.72;;
67554;SDS011;54385;53.516;49.456;2023-05-28T04:16:41;10.55;;;5.32;;
67554;SDS011;54385;53.516;49.456;2023-05-28T04:19:08;12.70;;;5.22;;
67554;SDS011;54385;53.516;49.456;2023-05-28T04:21:34;10.52;;;5.10;;
67554;SDS011;54385;53.516;49.456;2023-05-28T04:24:02;11.85;;;5.45;;
67554;SDS011;54385;53.516;49.456;2023-05-28T04:26:29;15.02;;;5.85;;
67554;SDS011;54385;53.516;49.456;2023-05-28T04:28:55;12.90;;;5.20;;
67554;SDS011;54385;53.516;49.456;2023-05-28T04:31:22;16.15;;;5.75;;
67554;SDS011;54385;53.516;49.456;2023-05-28T04:33:52;10.15;;;4.55;;
67554;SDS011;54385;53.516;49.456;2023-05-28T04:36:19;10.50;;;5.13;;
67554;SDS011;54385;53.516;49.456;2023-05-28T04:38:46;12.40;;;5.07;;
67554;SDS011;54385;53.516;49.456;2023-05-28T04:41:12;13.85;;;5.95;;
67554;SDS011;54385;53.516;49.456;2023-05-28T04:43:40;13.02;;;5.28;;
67554;SDS011;54385;53.516;49.456;2023-05-28T04:46:07;12.35;;;5.15;;
67554;SDS011;54385;53.516;49.456;2023-05-28T04:48:34;11.50;;;4.88;;
67554;SDS011;54385;53.516;49.456;2023-05-28T04:51:01;17.17;;;5.68;;
67554;SDS011;54385;53.516;49.456;2023-05-28T04:53:31;13.52;;;5.35;;
67554;SDS011;54385;53.516;49.456;2023-05-28T04:55:59;17.08;;;5.25;;
67554;SDS011;54385;53.516;49.456;2023-05-28T04:58:26;12.65;;;5.78;;
67554;SDS011;54385;53.516;49.456;2023-05-28T05:00:53;16.63;;;5.13;;
67554;SDS011;54385;53.516;49.456;2023-05-28T05:03:21;16.63;;;5.35;;
67554;SDS011;54385;53.516;49.456;2023-05-28T05:05:47;12.90;;;5.72;;
67554;SDS011;54385;53.516;49.456;2023-05-28T05:08:14;11.65;;;6.65;;
67554;SDS011;54385;53.516;49.456;2023-05-28T05:10:40;13.02;;;5.20;;
67554;SDS011;54385;53.516;49.456;2023-05-28T05:13:06;17.85;;;5.00;;
67554;SDS011;54385;53.516;49.456;2023-05-28T05:15:33;12.30;;;5.30;;
67554;SDS011;54385;53.516;49.456;2023-05-28T05:17:59;12.18;;;5.35;;
67554;SDS011;54385;53.516;49.456;2023-05-28T05:20:26;14.60;;;5.68;;
67554;SDS011;54385;53.516;49.456;2023-05-28T05:22:52;13.73;;;5.15;;
67554;SDS011;54385;53.516;49.456;2023-05-28T05:25:19;16.95;;;6.47;;
67554;SDS011;54385;53.516;49.456;2023-05-28T05:27:48;15.80;;;6.55;;
67554;SDS011;54385;53.516;49.456;2023-05-28T05:30:16;13.85;;;5.65;;
67554;SDS011;54385;53.516;49.456;2023-05-28T05:32:43;11.43;;;5.35;;
67554;SDS011;54385;53.516;49.456;2023-05-28T05:35:10;11.70;;;5.35;;
67554;SDS011;54385;53.516;49.456;2023-05-28T05:37:37;13.65;;;5.22;;
67554;SDS011;54385;53.516;49.456;2023-05-28T05:40:04;22.92;;;5.47;;
67554;SDS011;54385;53.516;49.456;2023-05-28T05:42:31;15.45;;;5.85;;
67554;SDS011;54385;53.516;49.456;2023-05-28T05:44:57;10.48;;;5.63;;
67554;SDS011;54385;53.516;49.456;2023-05-28T05:47:23;15.30;;;5.90;;
67554;SDS011;54385;53.516;49.456;2023-05-28T05:49:50;11.07;;;6.07;;
67554;SDS011;54385;53.516;49.456;2023-05-28T05:52:17;12.95;;;4.60;;
67554;SDS011;54385;53.516;49.456;2023-05-28T05:54:43;12.10;;;5.75;;
67554;SDS011;54385;53.516;49.456;2023-05-28T05:57:11;12.65;;;6.00;;
67554;SDS011;54385;53.516;49.456;2023-05-28T05:59:37;11.88;;;4.10;;
67554;SDS011;54385;53.516;49.456;2023-05-28T06:02:04;12.32;;;5.05;;
67554;SDS011;54385;53.516;49.456;2023-05-28T06:04:30;13.88;;;4.65;;
67554;SDS011;54385;53.516;49.456;2023-05-28T06:07:00;10.57;;;4.72;;
67554;SDS011;54385;53.516;49.456;2023-05-28T06:09:32;11.30;;;5.07;;
67554;SDS011;54385;53.516;49.456;2023-05-28T06:11:59;11.38;;;4.78;;
67554;SDS011;54385;53.516;49.456;2023-05-28T06:14:27;11.20;;;4.68;;
67554;SDS011;54385;53.516;49.456;2023-05-28T06:16:54;13.07;;;5.82;;
67554;SDS011;54385;53.516;49.456;2023-05-28T06:19:21;13.70;;;5.32;;
67554;SDS011;54385;53.516;49.456;2023-05-28T06:21:48;13.30;;;4.18;;
67554;SDS011;54385;53.516;49.456;2023-05-28T06:24:15;12.90;;;5.20;;
67554;SDS011;54385;53.516;49.456;2023-05-28T06:26:41;12.93;;;5.00;;
67554;SDS011;54385;53.516;49.456;2023-05-28T06:29:07;12.02;;;4.97;;
67554;SDS011;54385;53.516;49.456;2023-05-28T06:31:35;15.55;;;5.28;;
67554;SDS011;54385;53.516;49.456;2023-05-28T06:34:01;11.23;;;5.28;;
67554;SDS011;54385;53.516;49.456;2023-05-28T06:36:28;12.48;;;5.13;;
67554;SDS011;54385;53.516;49.456;2023-05-28T06:38:54;12.73;;;4.75;;
67554;SDS011;54385;53.516;49.456;2023-05-28T06:41:21;12.15;;;5.38;;
67554;SDS011;54385;53.516;49.456;2023-05-28T06:43:47;12.15;;;5.45;;
67554;SDS011;54385;53.516;49.456;2023-05-28T06:46:14;9.55;;;5.20;;
67554;SDS011;54385;53.516;49.456;2023-05-28T06:48:40;15.52;;;5.05;;
67554;SDS011;54385;53.516;49.456;2023-05-28T06:51:07;14.88;;;5.45;;
67554;SDS011;54385;53.516;49.456;2023-05-28T06:53:33;12.95;;;5.55;;
67554;SDS011;54385;53.516;49.456;2023-05-28T06:56:00;11.52;;;5.60;;
67554;SDS011;54385;53.516;49.456;2023-05-28T06:58:26;12.82;;;5.03;;
67554;SDS011;54385;53.516;49.456;2023-05-28T07:00:53;16.85;;;5.30;;
67554;SDS011;54385;53.516;49.456;2023-05-28T07:03:19;11.93;;;6.00;;
67554;SDS011;54385;53.516;49.456;2023-05-28T07:05:45;10.50;;;5.18;;
67554;SDS011;54385;53.516;49.456;2023-05-28T07:08:12;10.68;;;5.15;;
67554;SDS011;54385;53.516;49.456;2023-05-28T07:10:38;11.10;;;5.10;;
67554;SDS011;54385;53.516;49.456;2023-05-28T07:13:08;10.63;;;5.07;;
67554;SDS011;54385;53.516;49.456;2023-05-28T07:15:34;14.98;;;5.15;;
67554;SDS011;54385;53.516;49.456;2023-05-28T07:18:01;16.77;;;5.13;;
67554;SDS011;54385;53.516;49.456;2023-05-28T07:20:27;15.00;;;4.95;;
67554;SDS011;54385;53.516;49.456;2023-05-28T07:22:54;19.00;;;5.53;;
67554;SDS011;54385;53.516;49.456;2023-05-28T07:25:20;10.27;;;4.00;;
67554;SDS011;54385;53.516;49.456;2023-05-28T07:27:47;14.63;;;5.32;;
67554;SDS011;54385;53.516;49.456;2023-05-28T07:30:13;13.00;;;5.38;;
67554;SDS011;54385;53.516;49.456;2023-05-28T07:32:40;12.82;;;5.38;;
67554;SDS011;54385;53.516;49.456;2023-05-28T07:35:06;11.05;;;5.32;;
67554;SDS011;54385;53.516;49.456;2023-05-28T07:37:33;11.80;;;4.80;;
67554;SDS011;54385;53.516;49.456;2023-05-28T07:40:00;12.50;;;5.05;;
67554;SDS011;54385;53.516;49.456;2023-05-28T07:42:27;8.90;;;4.95;;
67554;SDS011;54385;53.516;49.456;2023-05-28T07:44:53;9.32;;;4.95;;
67554;SDS011;54385;53.516;49.456;2023-05-28T07:47:20;11.30;;;5.03;;
67554;SDS011;54385;53.516;49.456;2023-05-28T07:49:46;11.95;;;4.90;;
67554;SDS011;54385;53.516;49.456;2023-05-28T07:52:12;10.77;;;5.40;;
67554;SDS011;54385;53.516;49.456;2023-05-28T07:54:39;12.65;;;4.90;;
67554;SDS011;54385;53.516;49.456;2023-05-28T07:57:05;9.55;;;5.05;;
67554;SDS011;54385;53.516;49.456;2023-05-28T07:59:32;15.32;;;4.82;;
67554;SDS011;54385;53.516;49.456;2023-05-28T08:01:59;12.70;;;4.70;;
67554;SDS011;54385;53.516;49.456;2023-05-28T08:04:26;14.70;;;4.80;;
67554;SDS011;54385;53.516;49.456;2023-05-28T08:06:53;12.73;;;4.55;;
67554;SDS011;54385;53.516;49.456;2023-05-28T08:09:19;11.95;;;4.40;;
67554;SDS011;54385;53.516;49.456;2023-05-28T08:11:46;10.52;;;4.10;;
67554;SDS011;54385;53.516;49.456;2023-05-28T08:14:13;13.05;;;4.15;;
67554;SDS011;54385;53.516;49.456;2023-05-28T08:16:40;14.73;;;4.40;;
67554;SDS011;54385;53.516;49.456;2023-05-28T08:19:07;13.23;;;4.50;;
67554;SDS011;54385;53.516;49.456;2023-05-28T08:21:33;12.93;;;4.53;;
67554;SDS011;54385;53.516;49.456;2023-05-28T08:24:01;9.93;;;4.03;;
67554;SDS011;54385;53.516;49.456;2023-05-28T08:26:28;9.90;;;4.28;;
67554;SDS011;54385;53.516;49.456;2023-05-28T08:28:55;13.50;;;3.92;;
67554;SDS011;54385;53.516;49.456;2023-05-28T08:31:21;13.07;;;4.47;;
67554;SDS011;54385;53.516;49.456;2023-05-28T08:33:48;38.45;;;5.00;;
67554;SDS011;54385;53.516;49.456;2023-05-28T08:36:15;18.30;;;4.05;;
67554;SDS011;54385;53.516;49.456;2023-05-28T08:38:42;13.48;;;4.07;;
67554;SDS011;54385;53.516;49.456;2023-05-28T08:41:09;13.55;;;4.20;;
67554;SDS011;54385;53.516;49.456;2023-05-28T08:43:38;11.75;;;4.28;;
67554;SDS011;54385;53.516;49.456;2023-05-28T08:46:04;17.00;;;4.55;;
67554;SDS011;54385;53.516;49.456;2023-05-28T08:48:32;14.25;;;3.45;;
67554;SDS011;54385;53.516;49.456;2023-05-28T08:51:00;19.95;;;3.80;;
67554;SDS011;54385;53.516;49.456;2023-05-28T08:53:32;12.20;;;3.30;;
67554;SDS011;54385;53.516;49.456;2023-05-28T08:56:05;13.38;;;3.60;;
67554;SDS011;54385;53.516;49.456;2023-05-28T08:58:34;9.82;;;3.33;;
67554;SDS011;54385;53.516;49.456;2023-05-28T09:01:05;22.50;;;3.58;;
67554;SDS011;54385;53.516;49.456;2023-05-28T09:03:33;17.90;;;4.03;;
67554;SDS011;54385;53.516;49.456;2023-05-28T09:06:00;14.88;;;2.97;;
67554;SDS011;54385;53.516;49.456;2023-05-28T09:08:28;15.50;;;3.72;;
67554;SDS011;54385;53.516;49.456;2023-05-28T09:10:55;16.55;;;4.30;;
67554;SDS011;54385;53.516;49.456;2023-05-28T09:13:23;11.82;;;3.17;;
67554;SDS011;54385;53.516;49.456;2023-05-28T09:15:52;13.30;;;3.58;;
67554;SDS011;54385;53.516;49.456;2023-05-28T09:18:22;10.20;;;3.10;;
67554;SDS011;54385;53.516;49.456;2023-05-28T09:20:49;10.00;;;2.83;;
67554;SDS011;54385;53.516;49.456;2023-05-28T09:23:19;13.55;;;3.05;;
67554;SDS011;54385;53.516;49.456;2023-05-28T09:25:47;16.13;;;3.60;;
67554;SDS011;54385;53.516;49.456;2023-05-28T09:28:13;15.88;;;3.90;;
67554;SDS011;54385;53.516;49.456;2023-05-28T09:30:40;13.43;;;3.53;;
67554;SDS011;54385;53.516;49.456;2023-05-28T09:33:08;16.58;;;3.40;;
67554;SDS011;54385;53.516;49.456;2023-05-28T09:35:35;17.75;;;3.80;;
67554;SDS011;54385;53.516;49.456;2023-05-28T09:38:03;10.98;;;3.08;;
67554;SDS011;54385;53.516;49.456;2023-05-28T09:40:37;10.18;;;3.30;;
67554;SDS011;54385;53.516;49.456;2023-05-28T09:43:08;9.25;;;3.15;;
67554;SDS011;54385;53.516;49.456;2023-05-28T09:45:35;9.80;;;2.83;;
67554;SDS011;54385;53.516;49.456;2023-05-28T09:48:03;8.32;;;2.78;;
67554;SDS011;54385;53.516;49.456;2023-05-28T09:50:30;14.98;;;2.92;;
67554;SDS011;54385;53.516;49.456;2023-05-28T09:52:57;12.70;;;2.75;;
67554;SDS011;54385;53.516;49.456;2023-05-28T09:55:26;12.88;;;2.58;;
67554;SDS011;54385;53.516;49.456;2023-05-28T09:58:04;8.02;;;2.50;;
67554;SDS011;54385;53.516;49.456;2023-05-28T10:00:35;38.80;;;4.88;;
67554;SDS011;54385;53.516;49.456;2023-05-28T10:03:22;17.70;;;4.00;;
67554;SDS011;54385;53.516;49.456;2023-05-28T10:05:52;25.77;;;4.47;;
67554;SDS011;54385;53.516;49.456;2023-05-28T10:08:25;15.80;;;3.53;;
67554;SDS011;54385;53.516;49.456;2023-05-28T10:10:53;13.73;;;2.88;;
67554;SDS011;54385;53.516;49.456;2023-05-28T10:13:22;10.40;;;3.05;;
67554;SDS011;54385;53.516;49.456;2023-05-28T10:15:49;6.57;;;2.42;;
67554;SDS011;54385;53.516;49.456;2023-05-28T10:18:18;8.55;;;2.72;;
67554;SDS011;54385;53.516;49.456;2023-05-28T10:20:46;6.07;;;2.13;;
67554;SDS011;54385;53.516;49.456;2023-05-28T10:23:13;12.05;;;3.13;;
67554;SDS011;54385;53.516;49.456;2023-05-28T10:25:40;6.35;;;2.58;;
67554;SDS011;54385;53.516;49.456;2023-05-28T10:28:07;8.00;;;2.42;;
67554;SDS011;54385;53.516;49.456;2023-05-28T10:30:35;11.25;;;2.80;;
67554;SDS011;54385;53.516;49.456;2023-05-28T10:33:04;12.23;;;3.00;;
67554;SDS011;54385;53.516;49.456;2023-05-28T10:35:34;7.70;;;1.73;;
67554;SDS011;54385;53.516;49.456;2023-05-28T10:38:02;7.68;;;2.58;;
67554;SDS011;54385;53.516;49.456;2023-05-28T10:40:34;6.93;;;2.33;;
67554;SDS011;54385;53.516;49.456;2023-05-28T10:43:02;5.13;;;2.10;;
67554;SDS011;54385;53.516;49.456;2023-05-28T10:45:38;5.38;;;2.10;;
67554;SDS011;54385;53.516;49.456;2023-05-28T10:48:06;6.75;;;1.80;;
67554;SDS011;54385;53.516;49.456;2023-05-28T10:50:33;6.32;;;1.88;;
67554;SDS011;54385;53.516;49.456;2023-05-28T10:53:24;4.55;;;1.88;;
67554;SDS011;54385;53.516;49.456;2023-05-28T10:55:54;4.07;;;2.00;;
67554;SDS011;54385;53.516;49.456;2023-05-28T10:58:22;9.80;;;3.10;;
67554;SDS011;54385;53.516;49.456;2023-05-28T11:00:53;5.85;;;2.05;;
67554;SDS011;54385;53.516;49.456;2023-05-28T11:03:39;7.22;;;2.05;;
67554;SDS011;54385;53.516;49.456;2023-05-28T11:06:06;5.13;;;2.00;;
67554;SDS011;54385;53.516;49.456;2023-05-28T11:08:40;10.63;;;1.95;;
67554;SDS011;54385;53.516;49.456;2023-05-28T11:11:12;3.83;;;1.80;;
67554;SDS011;54385;53.516;49.456;2023-05-28T11:13:44;5.43;;;1.88;;
67554;SDS011;54385;53.516;49.456;2023-05-28T11:16:12;5.95;;;2.20;;
67554;SDS011;54385;53.516;49.456;2023-05-28T11:19:00;2.00;;;1.60;;
67554;SDS011;54385;53.516;49.456;2023-05-28T11:21:28;5.40;;;1.90;;
67554;SDS011;54385;53.516;49.456;2023-05-28T11:24:03;4.75;;;1.63;;
67554;SDS011;54385;53.516;49.456;2023-05-28T11:26:31;4.85;;;1.70;;
67554;SDS011;54385;53.516;49.456;2023-05-28T11:28:58;6.60;;;1.90;;
67554;SDS011;54385;53.516;49.456;2023-05-28T11:31:26;3.22;;;1.63;;
67554;SDS011;54385;53.516;49.456;2023-05-28T11:33:54;4.85;;;2.05;;
67554;SDS011;54385;53.516;49.456;2023-05-28T11:36:21;5.70;;;2.00;;
67554;SDS011;54385;53.516;49.456;2023-05-28T11:38:59;4.35;;;1.85;;
67554;SDS011;54385;53.516;49.456;2023-05-28T11:41:28;2.65;;;1.67;;
67554;SDS011;54385;53.516;49.456;2023-05-28T11:43:56;4.57;;;1.92;;
67554;SDS011;54385;53.516;49.456;2023-05-28T11:46:23;5.75;;;1.67;;
67554;SDS011;54385;53.516;49.456;2023-05-28T11:48:50;4.68;;;1.90;;
67554;SDS011;54385;53.516;49.456;2023-05-28T11:51:20;2.88;;;2.05;;
67554;SDS011;54385;53.516;49.456;2023-05-28T11:53:47;5.50;;;1.80;;
67554;SDS011;54385;53.516;49.456;2023-05-28T11:56:14;6.18;;;2.00;;
67554;SDS011;54385;53.516;49.456;2023-05-28T11:58:45;5.75;;;2.15;;
67554;SDS011;54385;53.516;49.456;2023-05-28T12:01:14;3.85;;;2.20;;
67554;SDS011;54385;53.516;49.456;2023-05-28T12:03:42;6.55;;;2.00;;
67554;SDS011;54385;53.516;49.456;2023-05-28T12:06:10;8.25;;;2.25;;
67554;SDS011;54385;53.516;49.456;2023-05-28T12:08:39;10.77;;;2.97;;
67554;SDS011;54385;53.516;49.456;2023-05-28T12:11:07;6.72;;;2.25;;
67554;SDS011;54385;53.516;49.456;2023-05-28T12:13:36;6.03;;;2.10;;
67554;SDS011;54385;53.516;49.456;2023-05-28T12:16:10;3.45;;;2.05;;
67554;SDS011;54385;53.516;49.456;2023-05-28T12:18:39;5.18;;;2.30;;
67554;SDS011;54385;53.516;49.456;2023-05-28T12:21:10;6.88;;;2.17;;
67554;SDS011;54385;53.516;49.456;2023-05-28T12:23:38;4.55;;;2.00;;
67554;SDS011;54385;53.516;49.456;2023-05-28T12:26:09;4.47;;;2.08;;
67554;SDS011;54385;53.516;49.456;2023-05-28T12:28:41;5.22;;;2.17;;
67554;SDS011;54385;53.516;49.456;2023-05-28T12:31:08;5.47;;;2.50;;
67554;SDS011;54385;53.516;49.456;2023-05-28T12:33:35;3.30;;;1.98;;
67554;SDS011;54385;53.516;49.456;2023-05-28T12:36:02;4.78;;;2.03;;
67554;SDS011;54385;53.516;49.456;2023-05-28T12:38:29;3.65;;;1.98;;
67554;SDS011;54385;53.516;49.456;2023-05-28T12:40:56;4.50;;;2.30;;
67554;SDS011;54385;53.516;49.456;2023-05-28T12:43:25;4.50;;;2.00;;
67554;SDS011;54385;53.516;49.456;2023-05-28T12:45:51;4.63;;;2.17;;
67554;SDS011;54385;53.516;49.456;2023-05-28T12:48:18;4.70;;;2.22;;
67554;SDS011;54385;53.516;49.456;2023-05-28T12:50:45;3.88;;;2.00;;
67554;SDS011;54385;53.516;49.456;2023-05-28T12:53:12;4.43;;;2.15;;
67554;SDS011;54385;53.516;49.456;2023-05-28T12:55:38;3.67;;;2.13;;
67554;SDS011;54385;53.516;49.456;2023-05-28T12:58:05;5.25;;;2.40;;
67554;SDS011;54385;53.516;49.456;2023-05-28T13:00:32;5.35;;;2.28;;
67554;SDS011;54385;53.516;49.456;2023-05-28T13:02:59;3.35;;;2.30;;
67554;SDS011;54385;53.516;49.456;2023-05-28T13:05:29;7.85;;;2.47;;
67554;SDS011;54385;53.516;49.456;2023-05-28T13:07:59;3.80;;;2.03;;
67554;SDS011;54385;53.516;49.456;2023-05-28T13:10:29;8.48;;;2.72;;
67554;SDS011;54385;53.516;49.456;2023-05-28T13:12:56;11.27;;;3.45;;
67554;SDS011;54385;53.516;49.456;2023-05-28T13:15:23;3.35;;;2.20;;
67554;SDS011;54385;53.516;49.456;2023-05-28T13:17:50;6.15;;;2.63;;
67554;SDS011;54385;53.516;49.456;2023-05-28T13:20:16;5.40;;;2.20;;
67554;SDS011;54385;53.516;49.456;2023-05-28T13:22:43;6.22;;;2.53;;
67554;SDS011;54385;53.516;49.456;2023-05-28T13:25:10;5.63;;;2.70;;
67554;SDS011;54385;53.516;49.456;2023-05-28T13:27:38;5.32;;;2.20;;
67554;SDS011;54385;53.516;49.456;2023-05-28T13:30:06;4.32;;;2.58;;
67554;SDS011;54385;53.516;49.456;2023-05-28T13:32:34;6.80;;;2.20;;
67554;SDS011;54385;53.516;49.456;2023-05-28T13:35:00;2.70;;;2.15;;
67554;SDS011;54385;53.516;49.456;2023-05-28T13:37:29;4.57;;;2.47;;
67554;SDS011;54385;53.516;49.456;2023-05-28T13:39:58;4.85;;;2.38;;
67554;SDS011;54385;53.516;49.456;2023-05-28T13:42:25;4.93;;;2.17;;
67554;SDS011;54385;53.516;49.456;2023-05-28T13:44:53;4.65;;;2.35;;
67554;SDS011;54385;53.516;49.456;2023-05-28T13:47:20;5.63;;;2.40;;
67554;SDS011;54385;53.516;49.456;2023-05-28T13:49:47;4.43;;;2.47;;
67554;SDS011;54385;53.516;49.456;2023-05-28T13:52:14;2.45;;;1.90;;
67554;SDS011;54385;53.516;49.456;2023-05-28T13:54:41;6.30;;;2.75;;
67554;SDS011;54385;53.516;49.456;2023-05-28T13:57:08;5.53;;;2.35;;
67554;SDS011;54385;53.516;49.456;2023-05-28T13:59:35;2.70;;;2.00;;
67554;SDS011;54385;53.516;49.456;2023-05-28T14:02:03;6.47;;;2.50;;
67554;SDS011;54385;53.516;49.456;2023-05-28T14:04:30;4.63;;;2.35;;
67554;SDS011;54385;53.516;49.456;2023-05-28T14:06:56;5.95;;;2.55;;
67554;SDS011;54385;53.516;49.456;2023-05-28T14:09:23;4.28;;;2.50;;
67554;SDS011;54385;53.516;49.456;2023-05-28T14:11:50;9.68;;;2.83;;
67554;SDS011;54385;53.516;49.456;2023-05-28T14:14:18;9.45;;;2.70;;
67554;SDS011;54385;53.516;49.456;2023-05-28T14:16:44;4.38;;;2.38;;
67554;SDS011;54385;53.516;49.456;2023-05-28T14:19:11;6.20;;;2.53;;
67554;SDS011;54385;53.516;49.456;2023-05-28T14:21:38;3.60;;;2.33;;
67554;SDS011;54385;53.516;49.456;2023-05-28T14:24:05;4.78;;;2.13;;
67554;SDS011;54385;53.516;49.456;2023-05-28T14:26:31;3.45;;;1.90;;
67554;SDS011;54385;53.516;49.456;2023-05-28T14:28:58;3.70;;;2.28;;
67554;SDS011;54385;53.516;49.456;2023-05-28T14:31:26;7.05;;;2.20;;